首页
METAR-TAF:

METAR-TAF

机场 :

白原, 紐約州, 美国

纬度: 41-04-01N, 经度: 073-42-27W, 海拔: 134米

当前天气观测

该预报发布于36分钟前的13:56 UTC
风速9节,风向
温度 1°C
湿度 100%
气压 1016 hPa
能見度: 0.4公里

METAR: KHPN 151356Z 08009KT 1/4SM FG VV001 01/01 A3000 RMK AO2 SLP164 T00110006 RVRNO

时间: 09:32 (14:32 UTC)

预报

该预报发布于26分钟前的14:06 UTC
预报有效从15日的 14点(UTC)到 16日的 12点(UTC)
风速7节,风向
能見度: 1.6公里
多云层高于500英尺
阴天层高于1100英尺
轻雾
短暂存在
从 15日的 14点(UTC)到 15日的 16点(UTC)
能見度: 0.4公里
阴天层高于100英尺
从 15日的 1700点(UTC)
风速8节,风向
能見度: 6.4公里
多云层高于900英尺
阴天层高于1500英尺
轻雾
从 16日的 0000点(UTC)
风速12节,风向,有时为19节阵风
能見度: 6.4公里
阴天层高于900英尺
小雨, 轻雾
从 16日的 0700点(UTC)
风速11节,风向,有时为20节阵风
能見度: 2.4公里
散云层高于300英尺
阴天层高于800英尺
雨, 轻雾

TAF: KHPN 151406Z 1514/1612 08007KT 1SM BR BKN005 OVC011 TEMPO 1514/1516 1/4SM FG OVC001 FM151700 10008KT 4SM BR BKN009 OVC015 FM160000 09012G19KT 4SM -RA BR OVC009 FM160700 09011G20KT 1 1/2SM RA BR SCT003 OVC008 AMD NOT SKED

超过4000个机场的气象观测和天气预报(METAR&TAF报告)。

可查询的气象台以黄色和红色小点在地图上表示。

将鼠标移到小点上方,可查看气象台名称。

然后点击查看天气观测和预报。

如需切换地图:点击带黑十字的绿色按钮放大地图;点击带横线的绿色按钮缩小地图;或者点击绿色箭头查看邻近地区的地图。


METAR-TAF: